KORL/ORL METAR and TAF weather

Enter ICAO airport designator
Station Type Date Time Source
KORL METAR 2018/12/10 02:53 UTC NOAA

KORL 100253Z AUTO 26009KT 10SM FEW039 18/15 A2994 RMK AO2 SLP141 T01780150 51011 $


Station Type Date Time Source
KORL Decoded METAR 2018/12/10 02:53 UTC NOAA

ORLANDO EXECUTIVE AIRPORT, FL, United States (KORL) 28-33N 081-20W 37M
Dec 09, 2018 - 09:53 PM EST / 2018.12.10 0253 UTC
Wind: from the W (260 degrees) at 10 MPH (9 KT):0
Visibility: 10 mile(s):0
Sky conditions: mostly clear
Temperature: 64.0 F (17.8 C)
Dew Point: 59.0 F (15.0 C)
Relative Humidity: 83%
Pressure (altimeter): 29.94 in. Hg (1013 hPa)
Pressure tendency: 0.03 inches (1.1 hPa) higher than three hours ago
ob: KORL 100253Z AUTO 26009KT 10SM FEW039 18/15 A2994 RMK AO2 SLP141 T01780150 51011
cycle: 3

Station Type Date Time Source
KORL TAF UTC NOAA

Error!


Example: see airport list